Time;durP1;ratioP1;P1;durP2;ratioP2;P2;SDS_P1;SDS_P2;PMS_P1;PMS_P2;Temp;Humidity;BMP_temperature;BMP_pressure;BME280_temperature;BME280_humidity;BME280_pressure;Samples;Min_cycle;Max_cycle;Signal;HPM_P1;HPM_P2
2023/08/02 00:01:12;;;;;;;38.25;35.95;;;15.80;99.90;;;;;;5033663;28;20044;-82
2023/08/02 00:03:37;;;;;;;52.33;49.03;;;15.80;99.90;;;;;;5016890;28;20041;-82
2023/08/02 00:06:03;;;;;;;27.65;25.85;;;15.80;99.90;;;;;;5033605;28;20049;-81
2023/08/02 00:08:29;;;;;;;39.97;37.35;;;15.80;99.90;;;;;;5033062;28;20069;-81
2023/08/02 00:10:55;;;;;;;37.80;34.90;;;15.80;99.90;;;;;;5033443;28;20034;-81
2023/08/02 00:13:20;;;;;;;58.15;54.55;;;15.80;99.90;;;;;;5033385;28;20323;-81
2023/08/02 00:15:46;;;;;;;52.05;48.30;;;15.80;99.90;;;;;;5034839;28;20051;-82
2023/08/02 00:18:12;;;;;;;49.55;46.50;;;15.80;99.90;;;;;;5033255;28;20057;-82
2023/08/02 00:20:38;;;;;;;21.25;19.50;;;15.80;99.90;;;;;;5034707;28;20053;-81
2023/08/02 00:23:05;;;;;;;55.00;51.78;;;15.80;99.90;;;;;;5033018;28;20400;-82
2023/08/02 00:25:31;;;;;;;50.75;47.75;;;15.90;99.90;;;;;;5034262;28;20041;-82
2023/08/02 00:27:57;;;;;;;41.28;38.33;;;15.80;99.90;;;;;;5016770;28;20479;-81
2023/08/02 00:30:22;;;;;;;65.05;60.95;;;15.70;99.90;;;;;;5015559;28;20117;-81
2023/08/02 00:32:49;;;;;;;47.30;43.83;;;15.70;99.90;;;;;;5016746;28;20040;-81
2023/08/02 00:35:15;;;;;;;27.42;24.88;;;15.70;99.90;;;;;;5034406;28;20087;-82
2023/08/02 00:37:42;;;;;;;32.97;30.77;;;15.70;99.90;;;;;;5032459;28;20041;-82
2023/08/02 00:40:08;;;;;;;58.20;54.33;;;15.70;99.90;;;;;;5032866;28;20120;-82
2023/08/02 00:42:35;;;;;;;32.72;30.40;;;15.70;99.90;;;;;;5033175;28;20092;-81
2023/08/02 00:45:01;;;;;;;43.17;40.10;;;15.70;99.90;;;;;;5032888;28;20049;-81
2023/08/02 00:47:27;;;;;;;42.88;39.92;;;15.70;99.90;;;;;;5033021;28;20106;-82
2023/08/02 00:49:53;;;;;;;24.95;23.02;;;15.60;99.90;;;;;;5016178;28;20547;-82
2023/08/02 00:52:20;;;;;;;52.85;49.33;;;15.70;99.90;;;;;;5032231;28;20104;-82
2023/08/02 00:54:47;;;;;;;46.33;43.45;;;15.70;99.90;;;;;;5032627;28;20091;-81
2023/08/02 00:57:14;;;;;;;64.65;60.35;;;15.60;99.90;;;;;;5016334;28;20289;-82
2023/08/02 00:59:40;;;;;;;54.22;50.90;;;15.60;99.90;;;;;;5033950;28;20452;-82
2023/08/02 01:02:06;;;;;;;60.28;55.90;;;15.70;99.90;;;;;;5016103;28;20045;-82
2023/08/02 01:04:36;;;;;;;44.33;41.65;;;15.60;99.90;;;;;;5032490;28;20045;-81
2023/08/02 01:07:27;;;;;;;63.17;58.85;;;15.60;99.90;;;;;;5031962;28;20083;-82
2023/08/02 01:10:01;;;;;;;66.22;62.30;;;15.60;99.90;;;;;;5016083;28;20124;-82
2023/08/02 01:12:29;;;;;;;61.75;57.38;;;15.60;99.90;;;;;;5032335;28;20042;-82
2023/08/02 01:14:57;;;;;;;44.47;41.38;;;15.60;99.90;;;;;;5032370;28;20137;-82
2023/08/02 01:17:26;;;;;;;39.92;36.92;;;15.60;99.90;;;;;;5032285;28;20047;-82
2023/08/02 01:19:51;;;;;;;54.58;50.70;;;15.60;99.90;;;;;;5032938;28;20050;-82
2023/08/02 01:22:17;;;;;;;54.35;50.92;;;15.60;99.90;;;;;;5033530;28;20120;-82
2023/08/02 01:24:43;;;;;;;40.42;37.28;;;15.60;99.90;;;;;;5033438;28;20087;-81
2023/08/02 01:27:13;;;;;;;42.25;39.28;;;15.60;99.90;;;;;;5033383;28;20091;-82
2023/08/02 01:29:47;;;;;;;61.63;57.25;;;15.60;99.90;;;;;;5015532;28;20037;-81
2023/08/02 01:32:15;;;;;;;44.88;41.58;;;15.60;99.90;;;;;;5032349;28;20038;-82
2023/08/02 01:34:41;;;;;;;57.63;53.60;;;15.50;99.90;;;;;;5031801;28;20053;-82
2023/08/02 01:37:07;;;;;;;52.72;49.20;;;15.60;99.90;;;;;;5015421;28;20053;-82
2023/08/02 01:39:33;;;;;;;53.25;49.70;;;15.50;99.90;;;;;;5032020;28;20045;-81
2023/08/02 01:41:58;;;;;;;44.97;40.85;;;15.50;99.90;;;;;;5033098;28;20048;-81
2023/08/02 01:44:24;;;;;;;26.33;23.95;;;15.60;99.90;;;;;;5031656;28;20046;-82
2023/08/02 01:46:49;;;;;;;46.33;42.88;;;15.50;99.90;;;;;;5031613;28;20396;-82
2023/08/02 01:49:15;;;;;;;51.22;47.85;;;15.50;99.90;;;;;;5031399;28;20076;-82
2023/08/02 01:51:41;;;;;;;73.18;68.80;;;15.50;99.90;;;;;;5031762;28;20511;-81
2023/08/02 01:54:06;;;;;;;43.03;40.03;;;15.50;99.90;;;;;;5031486;28;20051;-82
2023/08/02 01:56:32;;;;;;;55.90;52.15;;;15.50;99.90;;;;;;5032656;28;20041;-82
2023/08/02 01:58:58;;;;;;;54.00;50.22;;;15.50;99.90;;;;;;5015195;28;20103;-82
2023/08/02 02:01:23;;;;;;;47.17;44.00;;;15.50;99.90;;;;;;5031237;28;20048;-82
2023/08/02 02:03:49;;;;;;;62.03;57.30;;;15.50;99.90;;;;;;5030754;28;20041;-82
2023/08/02 02:06:14;;;;;;;33.70;31.08;;;15.50;99.90;;;;;;5031214;28;20048;-82
2023/08/02 02:08:40;;;;;;;36.83;34.13;;;15.50;99.90;;;;;;5014765;28;20124;-82
2023/08/02 02:11:06;;;;;;;52.55;48.80;;;15.50;99.90;;;;;;5031358;28;20455;-82
2023/08/02 02:13:31;;;;;;;50.45;47.28;;;15.50;99.90;;;;;;5031025;28;20496;-82
2023/08/02 02:15:57;;;;;;;53.88;49.92;;;15.70;99.90;;;;;;5030996;28;20049;-82
2023/08/02 02:18:22;;;;;;;34.53;31.73;;;15.50;99.90;;;;;;5030572;28;20049;-81
2023/08/02 02:20:48;;;;;;;55.03;51.25;;;15.40;99.90;;;;;;5030958;28;20065;-82
2023/08/02 02:23:14;;;;;;;49.88;46.38;;;15.50;99.90;;;;;;5030917;28;20079;-82
2023/08/02 02:25:39;;;;;;;46.58;43.03;;;15.50;99.90;;;;;;5030986;28;20033;-82
2023/08/02 02:28:05;;;;;;;75.20;69.43;;;15.50;99.90;;;;;;5030889;28;20045;-82
2023/08/02 02:30:31;;;;;;;54.70;50.95;;;15.50;99.90;;;;;;5030858;28;20041;-82
2023/08/02 02:32:56;;;;;;;46.92;43.42;;;15.40;99.90;;;;;;5030550;28;20124;-81
2023/08/02 02:35:22;;;;;;;57.63;53.70;;;15.40;99.90;;;;;;5030710;28;20116;-82
2023/08/02 02:37:48;;;;;;;50.97;47.40;;;15.40;99.90;;;;;;5030642;28;20049;-82
2023/08/02 02:40:14;;;;;;;46.42;42.20;;;15.50;99.90;;;;;;5030685;28;20046;-82
2023/08/02 02:42:40;;;;;;;52.83;49.05;;;15.50;99.90;;;;;;5030737;28;20043;-82
2023/08/02 02:45:08;;;;;;;24.60;22.25;;;15.50;99.90;;;;;;5031792;28;20041;-82
2023/08/02 02:47:33;;;;;;;52.03;48.35;;;15.40;99.90;;;;;;5030200;28;20046;-82
2023/08/02 02:49:59;;;;;;;32.40;29.95;;;15.40;99.90;;;;;;5030559;28;20037;-82
2023/08/02 02:52:24;;;;;;;73.55;68.40;;;15.40;99.90;;;;;;5030724;28;20548;-82
2023/08/02 02:54:50;;;;;;;44.20;41.20;;;15.40;99.90;;;;;;5031389;28;20099;-82
2023/08/02 02:57:17;;;;;;;35.38;32.25;;;15.40;99.90;;;;;;5030821;28;20049;-82
2023/08/02 02:59:43;;;;;;;31.42;28.80;;;15.40;99.90;;;;;;5031676;28;20045;-82
2023/08/02 03:02:08;;;;;;;70.00;65.13;;;15.40;99.90;;;;;;5031215;28;20145;-81
2023/08/02 03:04:34;;;;;;;52.00;48.42;;;15.40;99.90;;;;;;5030406;28;20535;-82
2023/08/02 03:07:00;;;;;;;39.78;36.80;;;15.40;99.90;;;;;;5030623;28;20061;-82
2023/08/02 03:09:25;;;;;;;44.47;40.80;;;15.40;99.90;;;;;;5030404;28;20037;-82
2023/08/02 03:11:51;;;;;;;49.17;45.60;;;15.40;99.90;;;;;;5031577;28;20065;-81
2023/08/02 03:14:17;;;;;;;34.90;32.22;;;15.40;99.90;;;;;;5030263;28;20052;-82
2023/08/02 03:16:45;;;;;;;66.25;61.65;;;15.30;99.90;;;;;;5029756;28;20041;-81
2023/08/02 03:19:11;;;;;;;50.63;46.88;;;15.30;99.90;;;;;;5030107;28;20061;-82
2023/08/02 03:21:38;;;;;;;34.25;31.10;;;15.30;99.90;;;;;;5030177;28;20148;-82
2023/08/02 03:24:04;;;;;;;58.25;53.47;;;15.40;99.90;;;;;;5030279;28;20041;-82
2023/08/02 03:26:29;;;;;;;46.75;42.85;;;15.30;99.90;;;;;;5030132;28;20045;-82
2023/08/02 03:28:55;;;;;;;51.63;47.78;;;15.30;99.90;;;;;;5030092;28;20037;-82
2023/08/02 03:31:21;;;;;;;77.55;71.82;;;15.30;99.90;;;;;;5029688;28;20051;-82
2023/08/02 03:33:47;;;;;;;48.95;45.20;;;15.30;99.90;;;;;;5031511;28;20113;-82
2023/08/02 03:36:12;;;;;;;57.65;53.35;;;15.30;99.90;;;;;;5030097;28;20511;-82
2023/08/02 03:38:38;;;;;;;42.35;38.42;;;15.30;99.90;;;;;;5030032;28;20499;-82
2023/08/02 03:41:04;;;;;;;44.15;40.67;;;15.30;99.90;;;;;;5030093;28;20493;-82
2023/08/02 03:43:29;;;;;;;43.30;40.10;;;15.30;99.90;;;;;;5029907;28;20037;-82
2023/08/02 03:45:55;;;;;;;67.20;61.92;;;15.30;99.90;;;;;;5013041;28;20129;-82
2023/08/02 03:48:20;;;;;;;55.10;49.58;;;15.30;99.90;;;;;;5029965;28;20499;-82
2023/08/02 03:50:46;;;;;;;54.83;49.83;;;15.30;99.90;;;;;;5029919;28;20044;-82
2023/08/02 03:53:12;;;;;;;57.20;52.63;;;15.30;99.90;;;;;;5029866;28;20046;-82
2023/08/02 03:55:37;;;;;;;40.92;37.25;;;15.30;99.90;;;;;;5013279;28;20052;-82
2023/08/02 03:58:03;;;;;;;48.78;44.30;;;15.30;99.90;;;;;;5029741;28;20045;-82
2023/08/02 04:00:29;;;;;;;49.45;45.13;;;15.30;99.90;;;;;;5030715;28;20045;-82
2023/08/02 04:02:55;;;;;;;59.72;54.75;;;15.30;99.90;;;;;;5029884;28;20132;-82
2023/08/02 04:05:21;;;;;;;47.60;43.45;;;15.30;99.90;;;;;;5030461;28;20037;-82
2023/08/02 04:07:47;;;;;;;67.07;61.40;;;15.30;99.90;;;;;;5034789;28;20033;-82
2023/08/02 04:10:12;;;;;;;76.95;70.75;;;15.30;99.90;;;;;;5034633;28;20034;-82
2023/08/02 04:12:38;;;;;;;50.72;39.35;;;15.30;99.90;;;;;;5016797;28;20037;-82
2023/08/02 04:15:05;;;;;;;36.90;33.50;;;15.30;99.90;;;;;;5034313;28;20053;-82
2023/08/02 04:17:30;;;;;;;47.60;43.40;;;15.30;99.90;;;;;;5034594;28;20041;-82
2023/08/02 04:19:57;;;;;;;61.67;56.95;;;15.30;99.90;;;;;;5034615;28;20433;-82
2023/08/02 04:22:23;;;;;;;47.35;43.10;;;15.30;99.90;;;;;;5033493;28;20052;-82
2023/08/02 04:24:49;;;;;;;42.33;38.05;;;15.30;99.90;;;;;;5016626;28;20090;-82
2023/08/02 04:27:14;;;;;;;39.53;35.53;;;15.30;99.90;;;;;;5033365;28;20030;-82
2023/08/02 04:29:40;;;;;;;36.78;31.52;;;15.30;99.90;;;;;;5032547;28;20095;-81
2023/08/02 04:32:05;;;;;;;39.05;35.45;;;15.30;99.90;;;;;;5033375;28;20136;-82
2023/08/02 04:34:31;;;;;;;49.08;44.72;;;15.30;99.90;;;;;;5034185;28;20037;-82
2023/08/02 04:36:57;;;;;;;35.75;31.63;;;15.30;99.90;;;;;;5033110;28;20040;-82
2023/08/02 04:39:22;;;;;;;49.90;45.83;;;15.30;99.90;;;;;;5034152;28;20477;-82
2023/08/02 04:41:54;;;;;;;52.20;46.85;;;15.20;99.90;;;;;;5034144;28;20040;-82
2023/08/02 04:44:20;;;;;;;41.42;37.95;;;15.20;99.90;;;;;;5032553;28;20392;-82
2023/08/02 04:46:46;;;;;;;39.20;35.75;;;15.20;99.90;;;;;;5034369;28;20033;-82
2023/08/02 04:49:11;;;;;;;55.17;51.08;;;15.20;99.90;;;;;;5032974;28;20396;-82
2023/08/02 04:51:38;;;;;;;38.30;34.95;;;15.30;99.90;;;;;;5032562;28;20037;-82
2023/08/02 04:54:04;;;;;;;44.58;40.38;;;15.50;99.90;;;;;;5033958;28;20131;-82
2023/08/02 04:56:30;;;;;;;27.42;20.73;;;15.20;99.90;;;;;;5032859;28;20037;-82
2023/08/02 04:58:56;;;;;;;44.50;40.85;;;15.20;99.90;;;;;;5032067;28;20065;-82
2023/08/02 05:01:22;;;;;;;27.73;21.08;;;15.30;99.90;;;;;;5032482;28;20483;-82
2023/08/02 05:03:47;;;;;;;43.80;39.67;;;15.20;99.90;;;;;;5033768;28;20069;-82
2023/08/02 05:06:13;;;;;;;47.00;42.88;;;15.20;99.90;;;;;;5033837;28;20120;-82
2023/08/02 05:08:39;;;;;;;39.08;35.80;;;15.20;99.90;;;;;;5032446;28;20040;-82
2023/08/02 05:11:08;;;;;;;45.40;41.55;;;15.20;99.90;;;;;;5033605;28;20096;-82
2023/08/02 05:13:34;;;;;;;31.35;28.08;;;15.30;99.90;;;;;;5031871;28;20053;-82
2023/08/02 05:16:00;;;;;;;46.67;41.88;;;15.30;99.90;;;;;;5033348;28;20030;-82
2023/08/02 05:18:25;;;;;;;49.17;45.22;;;15.40;99.90;;;;;;5033672;28;20128;-82
2023/08/02 05:20:53;;;;;;;25.42;21.92;;;15.30;99.90;;;;;;5015658;28;20029;-82
2023/08/02 05:23:18;;;;;;;43.58;39.85;;;15.30;99.90;;;;;;5032161;28;20037;-82
2023/08/02 05:25:44;;;;;;;20.63;18.33;;;15.30;99.90;;;;;;5015511;28;20144;-82
2023/08/02 05:28:09;;;;;;;48.30;43.90;;;15.30;99.90;;;;;;5031795;28;20038;-82
2023/08/02 05:30:36;;;;;;;38.08;34.53;;;15.40;99.90;;;;;;5033320;28;20069;-82
2023/08/02 05:33:02;;;;;;;40.70;37.42;;;15.40;99.90;;;;;;5032293;28;20041;-82
2023/08/02 05:35:29;;;;;;;30.77;28.00;;;15.50;99.90;;;;;;5015320;28;20090;-82
2023/08/02 05:37:55;;;;;;;30.02;27.50;;;15.60;99.90;;;;;;5031899;28;20045;-82
2023/08/02 05:40:22;;;;;;;21.10;17.45;;;15.70;99.90;;;;;;5033104;28;20056;-82
2023/08/02 05:42:48;;;;;;;20.83;18.10;;;15.80;99.90;;;;;;5032810;28;20044;-82
2023/08/02 05:45:15;;;;;;;22.02;19.20;;;15.80;99.90;;;;;;5033006;28;20048;-82
2023/08/02 05:47:41;;;;;;;25.88;17.95;;;16.00;99.90;;;;;;5032220;28;20056;-82
2023/08/02 05:50:07;;;;;;;25.40;22.88;;;16.30;99.90;;;;;;5031698;28;20041;-82
2023/08/02 05:52:32;;;;;;;27.30;24.58;;;16.40;99.90;;;;;;5033003;28;20116;-82
2023/08/02 05:54:58;;;;;;;30.08;27.23;;;16.60;99.90;;;;;;5015416;28;20124;-82
2023/08/02 05:57:24;;;;;;;27.33;24.73;;;16.60;99.90;;;;;;5032603;28;20033;-82
2023/08/02 05:59:50;;;;;;;30.58;27.77;;;16.70;99.90;;;;;;5032871;28;20527;-82
2023/08/02 06:02:15;;;;;;;38.25;35.22;;;16.80;99.90;;;;;;5031805;28;20043;-82
2023/08/02 06:04:43;;;;;;;32.78;30.05;;;16.90;99.90;;;;;;5032713;28;20510;-82
2023/08/02 06:07:08;;;;;;;42.30;39.00;;;17.00;99.90;;;;;;5031414;28;20041;-82
2023/08/02 06:09:34;;;;;;;44.45;40.80;;;17.10;99.90;;;;;;5015161;28;20038;-82
2023/08/02 06:12:00;;;;;;;33.58;30.35;;;17.00;99.90;;;;;;5014608;28;20045;-82
2023/08/02 06:14:26;;;;;;;35.03;32.28;;;17.10;99.90;;;;;;5014697;28;20407;-82
2023/08/02 06:16:51;;;;;;;33.55;30.73;;;17.20;99.90;;;;;;5031369;28;20095;-82
2023/08/02 06:19:17;;;;;;;53.95;50.17;;;17.20;99.90;;;;;;5030977;28;20107;-82
2023/08/02 06:21:43;;;;;;;37.53;34.70;;;17.10;99.90;;;;;;5030953;28;20047;-82
2023/08/02 06:24:09;;;;;;;30.33;27.90;;;17.20;99.90;;;;;;5030895;28;20091;-82
2023/08/02 06:26:34;;;;;;;31.85;29.30;;;17.30;99.90;;;;;;5013991;28;20033;-82
2023/08/02 06:29:00;;;;;;;28.35;25.35;;;17.30;99.90;;;;;;5030457;28;20370;-82
2023/08/02 06:31:26;;;;;;;36.20;33.25;;;17.30;99.90;;;;;;5014417;28;20500;-82
2023/08/02 06:33:52;;;;;;;38.60;35.75;;;17.20;99.90;;;;;;5031059;28;20124;-82
2023/08/02 06:36:17;;;;;;;27.88;25.50;;;17.30;99.90;;;;;;5030999;28;20041;-82
2023/08/02 06:38:46;;;;;;;26.98;24.83;;;17.40;99.90;;;;;;5031862;28;20507;-82
2023/08/02 06:41:11;;;;;;;44.22;40.67;;;17.50;99.90;;;;;;5031628;28;20030;-82
2023/08/02 06:43:37;;;;;;;33.60;30.90;;;17.60;99.90;;;;;;5014288;28;20083;-82
2023/08/02 06:46:03;;;;;;;32.47;29.33;;;17.70;99.90;;;;;;5014219;28;20051;-82
2023/08/02 06:48:28;;;;;;;30.23;27.92;;;17.70;99.90;;;;;;5031767;28;20044;-82
2023/08/02 06:50:54;;;;;;;31.70;27.88;;;17.70;99.90;;;;;;5030393;28;20041;-82
2023/08/02 06:53:21;;;;;;;28.65;26.15;;;17.70;99.90;;;;;;5031162;28;20129;-82
2023/08/02 06:55:46;;;;;;;32.22;29.25;;;17.60;99.90;;;;;;5031853;28;20135;-82
2023/08/02 06:58:12;;;;;;;30.15;27.55;;;17.70;99.90;;;;;;5013987;28;20124;-82
2023/08/02 07:00:39;;;;;;;26.73;24.50;;;17.70;99.90;;;;;;5014110;28;20087;-82
2023/08/02 07:03:05;;;;;;;28.23;25.70;;;17.70;99.90;;;;;;5031909;28;20110;-82
2023/08/02 07:05:32;;;;;;;27.88;25.45;;;17.70;99.90;;;;;;5030313;28;20045;-82
2023/08/02 07:07:59;;;;;;;26.13;23.83;;;17.70;99.90;;;;;;5029866;28;20427;-81
2023/08/02 07:10:26;;;;;;;25.70;23.10;;;17.70;99.90;;;;;;5030610;28;20074;-82
2023/08/02 07:12:52;;;;;;;27.73;25.50;;;17.70;99.90;;;;;;5030681;28;20128;-82
2023/08/02 07:15:18;;;;;;;30.77;27.75;;;17.70;99.90;;;;;;5013768;28;20080;-82
2023/08/02 07:17:44;;;;;;;23.77;21.73;;;17.70;99.90;;;;;;5031455;28;20111;-82
2023/08/02 07:20:14;;;;;;;28.35;25.67;;;17.60;99.90;;;;;;5030181;28;20499;-82
2023/08/02 07:22:42;;;;;;;27.88;25.48;;;17.60;99.90;;;;;;5013253;28;20506;-82
2023/08/02 07:25:08;;;;;;;23.08;20.83;;;17.50;99.90;;;;;;5013565;28;20087;-82
2023/08/02 07:27:34;;;;;;;24.83;22.48;;;17.40;99.90;;;;;;5030101;28;20045;-82
2023/08/02 07:30:02;;;;;;;33.17;30.30;;;17.40;99.90;;;;;;5030044;28;20049;-83
2023/08/02 07:32:30;;;;;;;29.45;27.08;;;17.40;99.90;;;;;;5030172;28;20048;-82
2023/08/02 07:34:57;;;;;;;29.58;26.73;;;17.30;99.90;;;;;;5030083;28;20044;-83
2023/08/02 07:37:23;;;;;;;30.73;28.02;;;17.30;99.90;;;;;;5029831;28;20091;-82
2023/08/02 07:39:49;;;;;;;30.38;28.13;;;17.20;99.90;;;;;;5031730;28;20049;-83
2023/08/02 07:42:16;;;;;;;22.77;20.40;;;17.20;99.90;;;;;;5034216;28;20163;-83
2023/08/02 07:44:42;;;;;;;39.72;36.30;;;17.10;99.90;;;;;;5034124;28;20046;-82
2023/08/02 07:47:08;;;;;;;28.80;26.23;;;17.10;99.90;;;;;;5035256;28;20038;-83
2023/08/02 07:49:34;;;;;;;31.40;28.75;;;17.10;99.90;;;;;;5034105;28;20380;-82
2023/08/02 07:52:00;;;;;;;32.53;30.17;;;17.10;99.90;;;;;;5016879;28;20033;-83
2023/08/02 07:54:25;;;;;;;38.97;36.10;;;17.10;99.90;;;;;;5035175;28;20045;-83
2023/08/02 07:56:51;;;;;;;40.33;37.25;;;17.10;99.90;;;;;;5033871;28;20041;-83
2023/08/02 07:59:17;;;;;;;37.17;34.40;;;17.10;99.90;;;;;;5033698;28;20067;-83
2023/08/02 08:01:43;;;;;;;52.60;49.33;;;17.10;99.90;;;;;;5033656;28;20045;-83
2023/08/02 08:04:09;;;;;;;31.42;28.95;;;17.10;99.90;;;;;;5033551;28;20044;-82
2023/08/02 08:06:35;;;;;;;39.75;36.65;;;17.10;99.90;;;;;;5033090;28;20041;-82
2023/08/02 08:09:01;;;;;;;23.88;21.60;;;17.00;99.90;;;;;;5033551;28;20033;-82
2023/08/02 08:11:28;;;;;;;32.88;30.52;;;16.90;99.90;;;;;;5034851;28;20535;-82
2023/08/02 08:13:53;;;;;;;32.05;29.05;;;16.80;99.90;;;;;;5033436;28;20091;-83
2023/08/02 08:16:19;;;;;;;31.15;28.70;;;16.80;99.90;;;;;;5033371;28;20501;-82
2023/08/02 08:18:45;;;;;;;44.63;41.05;;;16.70;99.90;;;;;;5016702;28;20121;-82
2023/08/02 08:21:10;;;;;;;28.90;26.33;;;16.60;99.90;;;;;;5034284;28;20037;-82
2023/08/02 08:23:36;;;;;;;25.88;23.48;;;16.60;99.90;;;;;;5033137;28;20033;-82
2023/08/02 08:26:02;;;;;;;28.60;26.00;;;16.50;99.90;;;;;;5033086;28;20412;-82
2023/08/02 08:28:29;;;;;;;27.13;24.60;;;16.40;99.90;;;;;;5033254;28;20204;-82
2023/08/02 08:31:02;;;;;;;26.48;24.45;;;16.40;99.90;;;;;;5033131;28;20527;-82
2023/08/02 08:33:29;;;;;;;21.73;19.73;;;16.40;99.90;;;;;;5016682;28;20037;-82
2023/08/02 08:35:54;;;;;;;27.75;25.67;;;16.30;99.90;;;;;;5033989;28;20045;-82
2023/08/02 08:38:20;;;;;;;23.25;21.08;;;16.30;99.90;;;;;;5016545;28;20041;-82
2023/08/02 08:40:50;;;;;;;38.10;35.20;;;16.20;99.90;;;;;;5032976;28;20049;-82
2023/08/02 08:43:16;;;;;;;32.47;29.55;;;16.00;99.90;;;;;;5032844;28;20504;-82
2023/08/02 08:45:43;;;;;;;48.97;44.20;;;16.00;99.90;;;;;;5032782;28;20087;-82
2023/08/02 08:48:09;;;;;;;103.07;95.88;;;15.90;99.90;;;;;;5032954;28;20038;-81
2023/08/02 08:50:35;;;;;;;24.52;20.70;;;15.80;99.90;;;;;;5033231;28;20538;-81
2023/08/02 08:53:04;;;;;;;89.50;83.38;;;15.70;99.90;;;;;;5033696;28;20046;-82
2023/08/02 08:55:32;;;;;;;76.28;70.70;;;15.70;99.90;;;;;;5032957;28;20084;-82
2023/08/02 08:57:57;;;;;;;79.60;73.78;;;15.60;99.90;;;;;;5032569;28;20124;-82
2023/08/02 09:00:23;;;;;;;100.07;93.38;;;15.50;99.90;;;;;;5015976;28;20124;-82
2023/08/02 09:02:51;;;;;;;96.45;89.43;;;15.50;99.90;;;;;;5034083;28;20068;-82
2023/08/02 09:05:16;;;;;;;105.05;97.93;;;15.50;99.90;;;;;;5033339;28;20038;-82
2023/08/02 09:07:42;;;;;;;112.88;105.45;;;15.40;99.90;;;;;;5032417;28;20381;-82
2023/08/02 09:10:08;;;;;;;105.65;98.53;;;15.50;99.90;;;;;;5032456;28;20044;-82
2023/08/02 09:12:46;;;;;;;100.15;92.00;;;15.40;99.90;;;;;;5015777;28;20100;-82
2023/08/02 09:15:13;;;;;;;100.38;93.53;;;15.40;99.90;;;;;;5032368;28;20041;-82
2023/08/02 09:17:55;;;;;;;65.35;60.65;;;15.50;99.90;;;;;;5015855;28;20041;-81
2023/08/02 09:20:23;;;;;;;125.35;117.10;;;15.60;99.90;;;;;;5015599;28;20410;-82
2023/08/02 09:22:49;;;;;;;108.32;101.00;;;15.60;99.90;;;;;;5032415;28;20068;-82
2023/08/02 09:25:25;;;;;;;90.28;84.25;;;15.70;99.90;;;;;;5032042;28;20033;-82
2023/08/02 09:27:53;;;;;;;99.15;91.55;;;15.80;99.90;;;;;;5033594;28;20042;-82
2023/08/02 09:30:29;;;;;;;71.63;66.43;;;16.00;99.90;;;;;;5032200;28;20029;-82
2023/08/02 09:33:06;;;;;;;48.95;45.25;;;16.00;99.90;;;;;;5033404;28;20108;-82
2023/08/02 09:35:52;;;;;;;64.03;59.38;;;16.10;99.90;;;;;;5015375;28;20037;-83
2023/08/02 09:38:19;;;;;;;66.40;61.47;;;16.10;99.90;;;;;;5014974;28;20057;-82
2023/08/02 09:40:48;;;;;;;53.17;49.15;;;16.20;99.90;;;;;;5031820;28;20080;-82
2023/08/02 09:43:17;;;;;;;67.97;63.35;;;16.20;99.90;;;;;;5033185;28;20179;-83
2023/08/02 09:45:43;;;;;;;77.50;72.43;;;16.30;99.90;;;;;;5031705;28;20045;-82
2023/08/02 09:48:09;;;;;;;33.90;30.73;;;16.30;99.90;;;;;;5031185;28;20034;-82
2023/08/02 09:50:52;;;;;;;71.90;66.88;;;16.30;99.90;;;;;;5031865;28;20550;-82
2023/08/02 09:53:18;;;;;;;60.78;56.65;;;16.30;99.90;;;;;;5031651;28;20042;-82
2023/08/02 09:55:46;;;;;;;84.95;79.22;;;16.30;99.90;;;;;;5032735;28;20049;-81
2023/08/02 09:58:13;;;;;;;54.47;50.40;;;16.40;99.90;;;;;;5031679;28;20111;-82
2023/08/02 10:00:40;;;;;;;61.58;57.15;;;16.40;99.90;;;;;;5032600;28;20044;-82
2023/08/02 10:03:07;;;;;;;41.65;38.03;;;16.40;99.90;;;;;;5029947;28;20076;-82
2023/08/02 10:05:35;;;;;;;62.67;58.08;;;16.40;99.90;;;;;;5014826;28;20091;-82
2023/08/02 10:08:01;;;;;;;24.35;21.92;;;16.40;99.90;;;;;;5031384;28;20029;-82
2023/08/02 10:10:34;;;;;;;59.03;54.78;;;16.40;99.90;;;;;;5014822;28;20029;-82
2023/08/02 10:13:06;;;;;;;;;;;16.30;99.90;;;;;;5015537;28;20400;-82
2023/08/02 10:15:33;;;;;;;34.28;31.55;;;16.40;99.90;;;;;;5031508;28;19968;-82
2023/08/02 10:18:00;;;;;;;64.10;59.22;;;16.40;99.90;;;;;;5030604;28;20071;-82
2023/08/02 10:20:26;;;;;;;24.23;22.15;;;16.40;99.90;;;;;;5032655;28;20037;-82
2023/08/02 10:22:53;;;;;;;56.60;52.45;;;16.30;99.90;;;;;;5031147;28;20041;-83
2023/08/02 10:25:20;;;;;;;47.72;44.08;;;16.30;99.90;;;;;;5034125;28;20045;-82
2023/08/02 10:27:46;;;;;;;36.28;32.97;;;16.30;99.90;;;;;;5030947;28;20073;-82
2023/08/02 10:30:12;;;;;;;45.67;42.05;;;16.40;99.90;;;;;;5032301;28;20053;-83
2023/08/02 10:32:38;;;;;;;47.53;43.78;;;16.50;99.90;;;;;;5030717;28;20038;-83
2023/08/02 10:35:05;;;;;;;70.38;65.10;;;16.40;99.90;;;;;;5032186;28;20044;-82
2023/08/02 10:37:52;;;;;;;41.20;37.92;;;16.50;99.90;;;;;;5030804;28;20041;-83
2023/08/02 10:40:21;;;;;;;47.63;44.33;;;16.60;99.90;;;;;;5030924;28;20050;-83
2023/08/02 10:43:05;;;;;;;26.27;24.30;;;16.60;99.90;;;;;;5030725;28;20514;-83
2023/08/02 10:45:30;;;;;;;;;;;16.60;99.90;;;;;;5030672;28;20396;-83
2023/08/02 10:48:24;;;;;;;35.60;32.75;;;16.50;99.90;;;;;;5032045;28;19921;-84
2023/08/02 10:50:50;;;;;;;44.95;42.25;;;16.60;99.90;;;;;;5030815;28;20037;-84
2023/08/02 10:53:16;;;;;;;29.00;27.02;;;16.50;99.90;;;;;;5030649;28;20163;-84
2023/08/02 10:56:01;;;;;;;27.50;25.45;;;16.50;99.90;;;;;;5014129;28;20124;-84
2023/08/02 10:58:27;;;;;;;43.40;40.60;;;16.50;99.90;;;;;;5030926;28;20049;-84
2023/08/02 11:01:12;;;;;;;31.27;28.85;;;16.60;99.90;;;;;;5030186;28;20510;-84
2023/08/02 11:03:39;;;;;;;29.88;27.80;;;16.70;99.90;;;;;;5014310;28;20076;-84
2023/08/02 11:06:05;;;;;;;54.65;50.38;;;16.70;99.90;;;;;;5030465;28;20040;-84
2023/08/02 11:08:45;;;;;;;18.90;17.60;;;16.70;99.90;;;;;;5030729;28;20052;-84
2023/08/02 11:11:11;;;;;;;38.80;36.05;;;16.70;99.90;;;;;;5032143;28;20040;-85
2023/08/02 11:13:40;;;;;;;30.58;28.65;;;16.70;99.90;;;;;;5030163;28;20398;-85
2023/08/02 11:16:06;;;;;;;47.90;45.03;;;16.80;99.90;;;;;;5013248;28;20050;-84
2023/08/02 11:18:33;;;;;;;35.28;32.83;;;16.80;99.90;;;;;;5030202;28;20049;-84
2023/08/02 11:21:09;;;;;;;21.20;19.80;;;16.70;99.90;;;;;;5013918;28;20130;-85
2023/08/02 11:23:37;;;;;;;37.65;35.25;;;16.80;99.90;;;;;;5030250;28;20065;-84
2023/08/02 11:26:11;;;;;;;22.67;21.08;;;16.80;99.90;;;;;;5030415;28;20041;-84
2023/08/02 11:28:49;;;;;;;25.38;23.70;;;16.90;99.90;;;;;;5030166;28;20564;-83
2023/08/02 11:31:15;;;;;;;20.40;19.05;;;17.00;99.90;;;;;;5031658;28;20041;-84
2023/08/02 11:33:42;;;;;;;34.95;32.90;;;17.00;99.90;;;;;;5030793;28;20041;-84
2023/08/02 11:36:07;;;;;;;36.80;34.55;;;17.00;99.90;;;;;;5031467;28;20045;-84
2023/08/02 11:38:35;;;;;;;14.18;13.13;;;17.00;99.90;;;;;;5030032;28;20040;-84
2023/08/02 11:41:01;;;;;;;26.05;24.55;;;17.00;99.90;;;;;;5031581;28;20103;-84
2023/08/02 11:43:38;;;;;;;21.52;20.23;;;17.00;99.90;;;;;;5029803;28;20041;-84
2023/08/02 11:46:26;;;;;;;23.08;21.35;;;17.10;99.90;;;;;;5030111;28;20092;-84
2023/08/02 11:48:52;;;;;;;24.52;22.90;;;17.30;99.90;;;;;;5030204;28;20034;-85
2023/08/02 11:51:21;;;;;;;12.38;11.57;;;17.40;99.90;;;;;;5029916;28;20033;-84
2023/08/02 11:53:52;;;;;;;23.17;21.73;;;17.60;99.90;;;;;;5029949;28;20048;-84
2023/08/02 11:56:20;;;;;;;24.73;23.13;;;17.90;99.90;;;;;;5031434;28;20041;-85
2023/08/02 11:58:46;;;;;;;14.82;13.82;;;18.00;99.90;;;;;;5029609;28;20087;-85
2023/08/02 12:01:15;;;;;;;16.75;15.75;;;18.20;99.90;;;;;;5013521;28;20461;-85
2023/08/02 12:04:00;;;;;;;15.18;14.27;;;18.50;99.90;;;;;;5029916;28;20025;-85
2023/08/02 12:06:28;;;;;;;18.52;17.38;;;18.70;99.90;;;;;;5029947;28;20045;-85
2023/08/02 12:08:58;;;;;;;18.00;16.90;;;19.00;99.90;;;;;;5030034;28;20033;-85
2023/08/02 12:11:24;;;;;;;24.58;23.05;;;19.10;99.90;;;;;;5031184;28;20045;-85
2023/08/02 12:13:50;;;;;;;34.47;32.58;;;19.20;99.90;;;;;;5029412;28;20033;-85
2023/08/02 12:16:17;;;;;;;31.58;29.83;;;19.30;99.90;;;;;;5013104;28;20041;-85
2023/08/02 12:18:57;;;;;;;41.80;39.55;;;19.30;99.90;;;;;;5013307;28;20061;-85
2023/08/02 12:21:26;;;;;;;32.78;30.98;;;19.30;99.90;;;;;;5029915;28;20034;-85
2023/08/02 12:23:54;;;;;;;30.75;29.08;;;19.50;99.90;;;;;;5013181;28;20037;-85
2023/08/02 12:26:46;;;;;;;33.25;31.30;;;19.60;99.90;;;;;;5030479;28;20038;-85
2023/08/02 12:29:24;;;;;;;37.30;35.10;;;19.60;99.90;;;;;;5030959;28;20543;-85